createdAt,value
2018-05-07T00:00:20.822Z,101651.92
2018-05-07T00:02:48.984Z,101651.78
2018-05-07T00:05:17.195Z,101647.39
2018-05-07T00:07:45.368Z,101653.27
2018-05-07T00:10:13.557Z,101657.53
2018-05-07T00:12:41.728Z,101655.50
2018-05-07T00:15:09.882Z,101653.23
2018-05-07T00:17:38.082Z,101659.96
2018-05-07T00:20:06.262Z,101658.83
2018-05-07T00:22:34.451Z,101657.18
2018-05-07T00:25:02.598Z,101655.53
2018-05-07T00:27:30.769Z,101660.30
2018-05-07T00:29:58.927Z,101653.02
2018-05-07T00:32:27.118Z,101654.47
2018-05-07T00:34:55.307Z,101652.31
2018-05-07T00:37:23.495Z,101655.98
2018-05-07T00:39:51.709Z,101654.98
2018-05-07T00:42:19.977Z,101652.52
2018-05-07T00:44:48.193Z,101652.20
2018-05-07T00:47:16.361Z,101655.66
2018-05-07T00:49:44.587Z,101655.07
2018-05-07T00:52:12.741Z,101656.87
2018-05-07T01:42:52.824Z,101667.47
2018-05-07T01:45:20.978Z,101657.54
2018-05-07T01:47:49.180Z,101654.30
2018-05-07T01:50:17.363Z,101651.80
2018-05-07T01:52:45.552Z,101644.20
2018-05-07T01:55:13.714Z,101648.20
2018-05-07T01:57:41.891Z,101649.92
2018-05-07T02:00:10.104Z,101657.02
2018-05-07T02:02:38.272Z,101656.73
2018-05-07T02:05:06.465Z,101651.98
2018-05-07T02:07:34.639Z,101657.16
2018-05-07T02:10:02.819Z,101656.30
2018-05-07T02:12:31.442Z,101652.66
2018-05-07T02:14:59.659Z,101652.66
2018-05-07T02:17:27.846Z,101657.11
2018-05-07T02:19:56.010Z,101655.22
2018-05-07T02:22:24.164Z,101649.55
2018-05-07T02:24:52.372Z,101657.97
2018-05-07T02:27:20.539Z,101657.34
2018-05-07T02:29:48.712Z,101661.63
2018-05-07T02:32:16.886Z,101655.19
2018-05-07T02:34:45.100Z,101652.86
2018-05-07T02:37:13.275Z,101646.53
2018-05-07T02:39:41.490Z,101652.73
2018-05-07T02:42:09.688Z,101653.48
2018-05-07T02:44:37.873Z,101650.05
2018-05-07T02:47:06.027Z,101651.41
2018-05-07T02:49:34.249Z,101644.32
2018-05-07T02:52:02.393Z,101643.80
2018-05-07T02:54:30.579Z,101638.19
2018-05-07T02:56:58.725Z,101631.58
2018-05-07T02:59:26.898Z,101625.80
2018-05-07T03:01:55.067Z,101634.95
2018-05-07T03:04:23.259Z,101636.66
2018-05-07T03:06:51.438Z,101638.37
2018-05-07T03:09:19.579Z,101632.16
2018-05-07T03:11:47.746Z,101632.30
2018-05-07T03:14:15.922Z,101630.84
2018-05-07T03:16:44.126Z,101632.43
2018-05-07T03:19:12.268Z,101626.00
2018-05-07T03:21:40.441Z,101626.27
2018-05-07T03:24:08.618Z,101626.34
2018-05-07T03:26:36.820Z,101625.52
2018-05-07T03:29:04.975Z,101624.69
2018-05-07T03:31:33.201Z,101629.03
2018-05-07T03:34:01.349Z,101627.31
2018-05-07T03:36:29.542Z,101620.52
2018-05-07T03:38:57.725Z,101632.72
2018-05-07T03:41:25.899Z,101625.57
2018-05-07T03:43:54.099Z,101625.14
2018-05-07T03:46:22.252Z,101620.07
2018-05-07T03:48:50.402Z,101623.63
2018-05-07T03:51:18.565Z,101623.70
2018-05-07T03:53:46.741Z,101617.84
2018-05-07T03:56:14.953Z,101614.20
2018-05-07T03:58:43.136Z,101611.54
2018-05-07T04:01:11.317Z,101606.23
2018-05-07T04:03:39.547Z,101608.41
2018-05-07T04:06:07.706Z,101608.55
2018-05-07T04:08:35.886Z,101605.22
2018-05-07T04:11:04.087Z,101597.90
2018-05-07T04:13:32.322Z,101601.80
2018-05-07T04:16:00.452Z,101597.50
2018-05-07T04:19:24.464Z,101596.20
2018-05-07T04:22:31.484Z,101597.50
2018-05-07T04:24:59.660Z,101599.16
2018-05-07T04:27:27.842Z,101592.92
2018-05-07T04:29:56.015Z,101593.35
2018-05-07T04:32:24.187Z,101594.42
2018-05-07T04:34:52.395Z,101603.83
2018-05-07T04:37:20.583Z,101599.02
2018-05-07T04:39:48.763Z,101598.16
2018-05-07T04:42:16.969Z,101598.08
2018-05-07T04:44:45.154Z,101598.44
2018-05-07T04:47:13.328Z,101599.59
2018-05-07T04:49:41.481Z,101604.75
2018-05-07T04:52:09.653Z,101603.59
2018-05-07T04:54:38.369Z,101604.47
2018-05-07T04:57:06.511Z,101605.23
2018-05-07T04:59:34.700Z,101605.66
2018-05-07T05:02:02.877Z,101608.45
2018-05-07T05:04:31.053Z,101608.58
2018-05-07T05:06:59.202Z,101611.31
2018-05-07T05:09:27.416Z,101612.65
2018-05-07T05:11:55.574Z,101611.07
2018-05-07T05:14:23.747Z,101612.05
2018-05-07T05:16:51.948Z,101608.38
2018-05-07T05:19:20.243Z,101610.80
2018-05-07T05:21:48.334Z,101610.00
2018-05-07T05:24:16.516Z,101613.13
2018-05-07T05:26:44.704Z,101618.26
2018-05-07T05:29:12.907Z,101616.20
2018-05-07T05:31:41.094Z,101619.50
2018-05-07T05:34:09.236Z,101620.09
2018-05-07T05:36:37.442Z,101621.98
2018-05-07T05:39:06.100Z,101617.94
2018-05-07T05:41:34.285Z,101619.92
2018-05-07T05:44:02.455Z,101619.34
2018-05-07T05:46:30.647Z,101616.96
2018-05-07T05:48:58.868Z,101618.96
2018-05-07T05:51:27.052Z,101609.95
2018-05-07T05:53:55.220Z,101612.07
2018-05-07T05:56:23.624Z,101613.16
2018-05-07T05:58:51.764Z,101609.53
2018-05-07T06:01:19.946Z,101606.08
2018-05-07T06:03:48.165Z,101605.25
2018-05-07T06:06:16.283Z,101608.76
2018-05-07T06:08:44.484Z,101603.48
2018-05-07T06:11:12.642Z,101605.02
2018-05-07T06:13:40.790Z,101606.37
2018-05-07T06:16:08.973Z,101596.52
2018-05-07T06:18:37.136Z,101600.15
2018-05-07T06:21:05.335Z,101597.84
2018-05-07T06:23:33.512Z,101597.94
2018-05-07T06:26:01.744Z,101597.90
2018-05-07T06:28:29.906Z,101592.48
2018-05-07T06:30:58.094Z,101588.47
2018-05-07T06:33:26.516Z,101587.01
2018-05-07T06:35:54.689Z,101589.03
2018-05-07T06:38:22.848Z,101582.91
2018-05-07T06:40:51.040Z,101580.02
2018-05-07T06:43:19.227Z,101577.00
2018-05-07T06:45:47.402Z,101581.52
2018-05-07T06:48:15.557Z,101584.77
2018-05-07T06:50:43.769Z,101585.09
2018-05-07T06:53:11.967Z,101582.73
2018-05-07T06:55:40.137Z,101581.20
2018-05-07T06:58:08.610Z,101580.44
2018-05-07T07:00:37.718Z,101588.44
2018-05-07T07:03:06.915Z,101575.86
2018-05-07T07:05:36.787Z,101571.33
2018-05-07T07:08:06.928Z,101573.31
2018-05-07T07:10:35.438Z,101574.80
2018-05-07T07:13:04.811Z,101576.70
2018-05-07T07:15:34.407Z,101574.08
2018-05-07T07:18:03.155Z,101574.98
2018-05-07T07:20:33.493Z,101574.00
2018-05-07T07:23:02.302Z,101568.05
2018-05-07T07:25:32.305Z,101564.80
2018-05-07T07:28:03.150Z,101565.13
2018-05-07T07:30:31.210Z,101570.64
2018-05-07T07:32:59.412Z,101565.28
2018-05-07T07:35:27.628Z,101561.19
2018-05-07T07:37:55.841Z,101564.38
2018-05-07T07:40:24.003Z,101571.53
2018-05-07T07:42:52.210Z,101568.91
2018-05-07T07:45:20.382Z,101560.94
2018-05-07T07:47:50.272Z,101561.88
2018-05-07T07:50:18.452Z,101568.75
2018-05-07T07:52:46.641Z,101569.27
2018-05-07T07:55:14.813Z,101565.83
2018-05-07T07:57:43.001Z,101570.39
2018-05-07T08:00:11.187Z,101555.11
2018-05-07T08:02:39.380Z,101557.91
2018-05-07T08:05:07.560Z,101564.97
2018-05-07T08:07:35.759Z,101557.83
2018-05-07T08:10:03.942Z,101560.24
2018-05-07T08:12:32.117Z,101560.56
2018-05-07T08:15:00.287Z,101555.81
2018-05-07T08:17:28.536Z,101551.26
2018-05-07T08:19:56.643Z,101554.41
2018-05-07T08:22:24.799Z,101548.12
2018-05-07T08:24:52.966Z,101548.17
2018-05-07T08:27:21.115Z,101549.41
2018-05-07T08:29:49.310Z,101554.16
2018-05-07T08:32:17.494Z,101546.72
2018-05-07T08:34:45.664Z,101548.59
2018-05-07T08:37:13.843Z,101545.14
2018-05-07T08:39:41.993Z,101542.91
2018-05-07T08:42:10.171Z,101544.29
2018-05-07T08:44:38.327Z,101542.86
2018-05-07T08:47:06.531Z,101543.17
2018-05-07T08:49:34.682Z,101540.42
2018-05-07T08:52:02.887Z,101540.50
2018-05-07T08:54:31.127Z,101544.34
2018-05-07T08:56:59.361Z,101535.33
2018-05-07T08:59:27.548Z,101535.31
2018-05-07T09:01:55.839Z,101533.89
2018-05-07T09:04:24.009Z,101534.72
2018-05-07T09:06:52.178Z,101536.01
2018-05-07T09:09:20.385Z,101529.77
2018-05-07T09:11:48.569Z,101530.50
2018-05-07T09:14:16.755Z,101526.59
2018-05-07T09:16:44.959Z,101527.26
2018-05-07T09:19:13.148Z,101528.48
2018-05-07T09:21:41.326Z,101530.70
2018-05-07T09:24:09.511Z,101521.48
2018-05-07T09:26:37.698Z,101516.61
2018-05-07T09:31:48.690Z,101507.45
2018-05-07T09:34:16.862Z,101507.20
2018-05-07T09:36:45.192Z,101501.72
2018-05-07T09:39:13.395Z,101505.98
2018-05-07T09:41:41.640Z,101499.34
2018-05-07T09:44:09.852Z,101497.69
2018-05-07T09:46:38.056Z,101497.63
2018-05-07T09:49:06.334Z,101487.13
2018-05-07T09:51:34.464Z,101488.06
2018-05-07T09:54:02.704Z,101492.88
2018-05-07T09:56:32.598Z,101479.69
2018-05-07T09:59:00.717Z,101476.24
2018-05-07T10:01:28.966Z,101478.39
2018-05-07T10:03:57.153Z,101475.88
2018-05-07T10:06:25.356Z,101473.89
2018-05-07T10:08:53.530Z,101471.14
2018-05-07T10:11:21.751Z,101466.92
2018-05-07T10:13:50.019Z,101458.73
2018-05-07T10:16:18.196Z,101462.86
2018-05-07T10:18:46.399Z,101450.55
2018-05-07T10:21:14.625Z,101460.84
2018-05-07T10:23:42.811Z,101452.56
2018-05-07T10:26:11.007Z,101458.14
2018-05-07T10:28:39.215Z,101457.06
2018-05-07T10:31:07.368Z,101458.65
2018-05-07T10:33:35.574Z,101454.41
2018-05-07T10:36:03.748Z,101454.66
2018-05-07T10:38:31.910Z,101456.87
2018-05-07T10:41:00.163Z,101459.72
2018-05-07T10:43:28.340Z,101456.50
2018-05-07T10:45:56.538Z,101454.37
2018-05-07T10:48:24.709Z,101457.16
2018-05-07T10:50:52.997Z,101457.09
2018-05-07T10:53:21.204Z,101449.83
2018-05-07T10:55:49.372Z,101446.19
2018-05-07T10:58:17.561Z,101450.05
2018-05-07T11:00:45.756Z,101446.77
2018-05-07T11:03:13.983Z,101438.98
2018-05-07T11:05:42.145Z,101434.97
2018-05-07T11:08:10.308Z,101434.52
2018-05-07T11:10:38.512Z,101432.97
2018-05-07T11:13:06.692Z,101430.94
2018-05-07T11:15:34.884Z,101431.09
2018-05-07T11:18:03.083Z,101428.25
2018-05-07T11:20:37.153Z,101423.83
2018-05-07T11:23:05.319Z,101420.67
2018-05-07T11:25:33.483Z,101420.94
2018-05-07T11:28:01.666Z,101421.39
2018-05-07T11:30:29.867Z,101427.84
2018-05-07T11:32:58.040Z,101422.98
2018-05-07T11:35:26.227Z,101415.27
2018-05-07T11:37:54.415Z,101411.38
2018-05-07T11:40:22.605Z,101404.23
2018-05-07T11:42:50.759Z,101401.80
2018-05-07T11:45:18.937Z,101407.59
2018-05-07T11:47:47.251Z,101407.63
2018-05-07T11:50:15.317Z,101419.06
2018-05-07T11:52:43.507Z,101403.66
2018-05-07T11:55:11.668Z,101390.11
2018-05-07T11:57:39.941Z,101390.81
2018-05-07T12:00:08.069Z,101390.09
2018-05-07T12:02:36.294Z,101391.70
2018-05-07T12:05:04.497Z,101384.16
2018-05-07T12:07:32.671Z,101388.86
2018-05-07T12:10:00.889Z,101384.63
2018-05-07T12:12:29.065Z,101380.89
2018-05-07T12:14:57.280Z,101377.30
2018-05-07T12:17:25.483Z,101374.65
2018-05-07T12:19:53.675Z,101372.46
2018-05-07T12:22:21.862Z,101372.09
2018-05-07T12:24:50.056Z,101378.24
2018-05-07T12:27:18.242Z,101365.08
2018-05-07T12:29:46.655Z,101370.57
2018-05-07T12:32:14.868Z,101363.87
2018-05-07T12:34:43.042Z,101362.52
2018-05-07T12:37:11.234Z,101359.27
2018-05-07T12:39:39.397Z,101361.36
2018-05-07T12:42:07.618Z,101355.34
2018-05-07T12:44:35.789Z,101355.12
2018-05-07T12:47:04.016Z,101348.46
2018-05-07T12:49:32.207Z,101343.89
2018-05-07T12:52:00.763Z,101346.70
2018-05-07T12:54:29.064Z,101347.56
2018-05-07T12:56:57.339Z,101334.93
2018-05-07T12:59:25.610Z,101326.61
2018-05-07T13:01:53.796Z,101331.62
2018-05-07T13:04:22.004Z,101331.28
2018-05-07T13:06:50.514Z,101324.16
2018-05-07T13:09:18.753Z,101316.86
2018-05-07T13:11:47.241Z,101309.59
2018-05-07T13:14:15.745Z,101318.52
2018-05-07T13:16:44.062Z,101306.51
2018-05-07T13:19:12.241Z,101295.92
2018-05-07T13:21:40.392Z,101297.73
2018-05-07T13:24:08.642Z,101301.38
2018-05-07T13:26:36.718Z,101291.75
2018-05-07T13:29:04.881Z,101297.66
2018-05-07T13:31:33.104Z,101284.30
2018-05-07T13:34:01.271Z,101281.14
2018-05-07T13:36:29.627Z,101285.55
2018-05-07T13:38:57.688Z,101279.37
2018-05-07T13:41:25.871Z,101280.13
2018-05-07T13:43:54.049Z,101272.95
2018-05-07T13:46:22.247Z,101274.03
2018-05-07T13:48:50.447Z,101272.36
2018-05-07T13:51:18.692Z,101269.23
2018-05-07T13:53:46.990Z,101268.69
2018-05-07T13:56:15.280Z,101265.59
2018-05-07T13:58:43.509Z,101255.88
2018-05-07T14:01:11.670Z,101251.04
2018-05-07T14:03:39.869Z,101251.16
2018-05-07T14:06:08.050Z,101252.53
2018-05-07T14:08:36.346Z,101245.56
2018-05-07T14:11:04.491Z,101243.61
2018-05-07T14:13:32.702Z,101240.37
2018-05-07T14:16:00.946Z,101237.88
2018-05-07T14:18:29.108Z,101232.81
2018-05-07T14:20:57.322Z,101235.54
2018-05-07T14:23:25.534Z,101243.54
2018-05-07T14:25:53.741Z,101238.11
2018-05-07T14:28:21.941Z,101230.25
2018-05-07T14:30:50.246Z,101225.12
2018-05-07T14:33:18.694Z,101227.63
2018-05-07T14:35:46.806Z,101226.23
2018-05-07T14:38:15.248Z,101216.36
2018-05-07T14:40:43.494Z,101213.67
2018-05-07T14:43:11.952Z,101223.78
2018-05-07T14:45:40.148Z,101216.73
2018-05-07T14:48:08.349Z,101219.70
2018-05-07T14:50:36.524Z,101215.09
2018-05-07T14:53:04.727Z,101211.20
2018-05-07T14:55:32.982Z,101205.48
2018-05-07T14:58:01.060Z,101200.44
2018-05-07T15:00:29.235Z,101206.24
2018-05-07T15:02:57.423Z,101202.90
2018-05-07T15:05:25.621Z,101204.34
2018-05-07T15:07:53.811Z,101192.46
2018-05-07T15:10:22.001Z,101198.59
2018-05-07T15:12:50.186Z,101196.45
2018-05-07T15:15:18.360Z,101184.64
2018-05-07T15:17:46.709Z,101185.62
2018-05-07T15:20:15.804Z,101184.72
2018-05-07T15:22:43.996Z,101184.88
2018-05-07T15:25:12.169Z,101185.30
2018-05-07T15:27:40.352Z,101185.09
2018-05-07T15:30:08.497Z,101179.04
2018-05-07T15:32:36.683Z,101178.05
2018-05-07T15:35:04.888Z,101186.91
2018-05-07T15:37:33.072Z,101174.55
2018-05-07T15:40:01.246Z,101173.11
2018-05-07T15:42:29.452Z,101171.54
2018-05-07T15:44:57.634Z,101165.58
2018-05-07T15:47:25.891Z,101158.36
2018-05-07T15:49:54.016Z,101160.05
2018-05-07T15:52:22.229Z,101163.59
2018-05-07T15:54:50.508Z,101153.36
2018-05-07T15:57:18.776Z,101157.77
2018-05-07T15:59:47.179Z,101159.95
2018-05-07T16:02:15.499Z,101160.75
2018-05-07T16:04:43.723Z,101156.66
2018-05-07T16:07:11.880Z,101158.92
2018-05-07T16:09:40.051Z,101154.38
2018-05-07T16:12:08.252Z,101145.73
2018-05-07T16:14:36.440Z,101150.56
2018-05-07T16:17:04.630Z,101147.05
2018-05-07T16:19:32.918Z,101141.43
2018-05-07T16:22:01.148Z,101142.94
2018-05-07T16:24:29.264Z,101136.95
2018-05-07T16:26:57.438Z,101132.51
2018-05-07T16:29:25.594Z,101138.34
2018-05-07T16:31:53.759Z,101132.94
2018-05-07T16:34:21.925Z,101131.19
2018-05-07T16:36:50.070Z,101136.40
2018-05-07T16:39:18.245Z,101121.83
2018-05-07T16:41:46.406Z,101126.77
2018-05-07T16:44:14.581Z,101120.98
2018-05-07T16:46:42.735Z,101120.93
2018-05-07T16:49:11.118Z,101119.23
2018-05-07T16:51:39.220Z,101115.97
2018-05-07T16:54:07.386Z,101115.77
2018-05-07T16:56:35.548Z,101118.11
2018-05-07T16:59:03.707Z,101112.21
2018-05-07T17:01:31.912Z,101110.77
2018-05-07T17:04:00.088Z,101105.03
2018-05-07T17:06:28.228Z,101101.08
2018-05-07T17:08:56.419Z,101102.34
2018-05-07T17:11:24.594Z,101099.66
2018-05-07T17:13:52.788Z,101100.80
2018-05-07T17:16:20.968Z,101108.34
2018-05-07T17:18:49.168Z,101108.64
2018-05-07T17:21:17.381Z,101099.77
2018-05-07T17:23:45.558Z,101103.04
2018-05-07T17:26:13.766Z,101107.27
2018-05-07T17:28:41.940Z,101096.95
2018-05-07T17:31:10.128Z,101092.70
2018-05-07T17:33:38.387Z,101095.13
2018-05-07T17:36:06.488Z,101098.47
2018-05-07T17:38:34.638Z,101098.05
2018-05-07T17:41:02.849Z,101091.50
2018-05-07T17:43:31.037Z,101088.59
2018-05-07T17:46:50.408Z,101092.95
2018-05-07T17:49:18.590Z,101093.38
2018-05-07T17:51:46.768Z,101084.19
2018-05-07T17:54:14.957Z,101091.50
2018-05-07T17:56:43.138Z,101091.70
2018-05-07T17:59:11.309Z,101088.43
2018-05-07T18:01:39.743Z,101090.19
2018-05-07T18:04:07.966Z,101090.36
2018-05-07T18:06:36.157Z,101089.76
2018-05-07T18:09:04.672Z,101087.58
2018-05-07T18:11:32.897Z,101090.67
2018-05-07T18:14:01.172Z,101091.30
2018-05-07T18:16:29.229Z,101095.34
2018-05-07T18:18:57.420Z,101092.61
2018-05-07T18:21:25.610Z,101092.92
2018-05-07T18:23:53.819Z,101087.09
2018-05-07T18:26:22.118Z,101084.11
2018-05-07T18:28:50.214Z,101082.62
2018-05-07T18:31:18.414Z,101086.42
2018-05-07T18:33:46.674Z,101084.18
2018-05-07T18:36:14.774Z,101084.44
2018-05-07T18:38:42.967Z,101078.27
2018-05-07T18:41:11.165Z,101077.79
2018-05-07T18:43:39.337Z,101076.42
2018-05-07T18:46:07.537Z,101081.78
2018-05-07T18:48:35.813Z,101084.27
2018-05-07T18:51:03.959Z,101085.11
2018-05-07T18:53:32.157Z,101086.41
2018-05-07T18:56:00.332Z,101082.35
2018-05-07T18:58:28.500Z,101086.38
2018-05-07T19:00:56.678Z,101091.59
2018-05-07T19:03:24.855Z,101090.06
2018-05-07T19:05:53.012Z,101084.87
2018-05-07T19:08:21.217Z,101084.39
2018-05-07T19:10:49.496Z,101085.12
2018-05-07T19:13:17.668Z,101088.56
2018-05-07T19:15:45.852Z,101081.58
2018-05-07T19:18:14.016Z,101084.45
2018-05-07T19:20:42.208Z,101088.64
2018-05-07T19:23:10.365Z,101086.00
2018-05-07T19:25:38.552Z,101097.06
2018-05-07T19:28:06.705Z,101093.27
2018-05-07T19:30:34.891Z,101097.72
2018-05-07T19:33:03.157Z,101094.60
2018-05-07T19:35:31.301Z,101094.81
2018-05-07T19:37:59.488Z,101098.09
2018-05-07T19:40:27.675Z,101096.90
2018-05-07T19:42:55.853Z,101104.08
2018-05-07T19:45:24.016Z,101099.06
2018-05-07T19:47:52.252Z,101095.00
2018-05-07T19:50:20.324Z,101102.98
2018-05-07T19:52:48.474Z,101096.66
2018-05-07T19:55:16.646Z,101101.92
2018-05-07T19:57:44.845Z,101100.09
2018-05-07T20:00:13.021Z,101100.42
2018-05-07T20:02:41.194Z,101107.71
2018-05-07T20:05:09.365Z,101105.33
2018-05-07T20:07:37.560Z,101110.45
2018-05-07T20:10:05.738Z,101103.89
2018-05-07T20:12:33.948Z,101109.56
2018-05-07T20:15:02.113Z,101113.11
2018-05-07T20:17:30.282Z,101110.73
2018-05-07T20:19:58.494Z,101111.48
2018-05-07T20:22:26.695Z,101108.02
2018-05-07T20:24:54.882Z,101107.50
2018-05-07T20:27:23.048Z,101103.05
2018-05-07T20:29:51.224Z,101106.34
2018-05-07T20:32:19.411Z,101108.55
2018-05-07T20:34:47.688Z,101104.77
2018-05-07T20:37:18.834Z,101110.36
2018-05-07T20:39:47.017Z,101110.73
2018-05-07T20:42:15.188Z,101110.12
2018-05-07T20:44:43.354Z,101108.54
2018-05-07T20:47:11.533Z,101106.48
2018-05-07T20:49:39.734Z,101107.27
2018-05-07T20:52:07.897Z,101102.67
2018-05-07T20:54:36.051Z,101106.58
2018-05-07T20:57:04.235Z,101102.26
2018-05-07T20:59:32.475Z,101104.84
2018-05-07T21:02:00.602Z,101103.39
2018-05-07T21:04:28.802Z,101098.89
2018-05-07T21:06:56.948Z,101100.92
2018-05-07T21:09:25.130Z,101096.86
2018-05-07T21:11:53.322Z,101098.06
2018-05-07T21:14:21.495Z,101101.15
2018-05-07T21:16:49.695Z,101094.75
2018-05-07T21:19:17.862Z,101094.77
2018-05-07T21:21:46.061Z,101097.61
2018-05-07T21:24:14.244Z,101098.66
2018-05-07T21:26:42.388Z,101095.81
2018-05-07T21:29:10.588Z,101094.94
2018-05-07T21:31:38.762Z,101086.02
2018-05-07T21:34:06.936Z,101091.23
2018-05-07T21:36:35.131Z,101087.70
2018-05-07T21:39:03.314Z,101091.59
2018-05-07T21:41:31.455Z,101083.73
2018-05-07T21:43:59.649Z,101087.45
2018-05-07T21:46:27.829Z,101085.45
2018-05-07T21:48:56.025Z,101081.48
2018-05-07T21:51:24.183Z,101081.37
2018-05-07T21:53:52.377Z,101070.20
2018-05-07T21:56:20.569Z,101073.89
2018-05-07T21:58:48.760Z,101070.29
2018-05-07T22:01:16.971Z,101077.30
2018-05-07T22:03:45.141Z,101071.28
2018-05-07T22:06:13.328Z,101064.50
2018-05-07T22:08:41.487Z,101069.65
2018-05-07T22:11:09.685Z,101067.09
2018-05-07T22:13:37.864Z,101064.28
2018-05-07T22:16:06.036Z,101067.02
2018-05-07T22:18:34.208Z,101067.14
2018-05-07T22:21:02.356Z,101071.02
2018-05-07T22:23:30.545Z,101062.39
2018-05-07T22:25:58.713Z,101063.30
2018-05-07T22:28:26.887Z,101063.63
2018-05-07T22:30:55.064Z,101062.54
2018-05-07T22:33:23.223Z,101062.39
2018-05-07T22:35:51.422Z,101069.78
2018-05-07T22:38:19.579Z,101068.05
2018-05-07T22:40:47.743Z,101063.87
2018-05-07T22:43:15.889Z,101060.52
2018-05-07T22:45:44.044Z,101059.66
2018-05-07T22:48:12.204Z,101067.31
2018-05-07T22:50:40.416Z,101066.07
2018-05-07T22:53:08.574Z,101066.59
2018-05-07T22:55:36.764Z,101066.38
2018-05-07T22:58:04.956Z,101062.86
2018-05-07T23:00:33.156Z,101063.05
2018-05-07T23:03:01.318Z,101059.89
2018-05-07T23:05:29.508Z,101059.21
2018-05-07T23:07:57.662Z,101059.46
2018-05-07T23:10:25.827Z,101057.23
2018-05-07T23:12:54.005Z,101057.33
2018-05-07T23:15:22.183Z,101057.94
2018-05-07T23:17:50.355Z,101050.92
2018-05-07T23:20:18.735Z,101052.05
2018-05-07T23:22:46.920Z,101052.78
2018-05-07T23:25:15.120Z,101052.14
2018-05-07T23:27:43.278Z,101047.17
2018-05-07T23:30:11.451Z,101052.48
2018-05-07T23:32:41.914Z,101047.91
2018-05-07T23:35:10.088Z,101046.10
2018-05-07T23:37:38.275Z,101041.13
2018-05-07T23:40:06.469Z,101038.11
2018-05-07T23:42:34.643Z,101040.28
2018-05-07T23:45:02.871Z,101032.98
2018-05-07T23:47:30.957Z,101031.70
2018-05-07T23:49:59.119Z,101028.26
2018-05-07T23:52:27.321Z,101028.26
2018-05-07T23:54:55.520Z,101021.24
2018-05-07T23:57:23.704Z,101023.91
2018-05-07T23:59:51.863Z,101018.19
